sensor_id;sensor_type;location;lat;lon;timestamp;pressure;altitude;pressure_sealevel;temperature;humidity
40788;BME280;26497;52.494;7.546;2023-05-27T00:00:47;102378.81;;;12.38;64.66
40788;BME280;26497;52.494;7.546;2023-05-27T00:03:14;102383.06;;;12.30;64.96
40788;BME280;26497;52.494;7.546;2023-05-27T00:05:41;102377.72;;;12.27;65.03
40788;BME280;26497;52.494;7.546;2023-05-27T00:08:09;102372.34;;;12.22;64.95
40788;BME280;26497;52.494;7.546;2023-05-27T00:10:36;102375.06;;;12.27;65.03
40788;BME280;26497;52.494;7.546;2023-05-27T00:13:03;102369.66;;;12.20;64.99
40788;BME280;26497;52.494;7.546;2023-05-27T00:15:30;102377.50;;;12.16;65.11
40788;BME280;26497;52.494;7.546;2023-05-27T00:17:58;102371.25;;;12.12;65.07
40788;BME280;26497;52.494;7.546;2023-05-27T00:20:25;102372.09;;;12.09;65.31
40788;BME280;26497;52.494;7.546;2023-05-27T00:22:52;102366.06;;;12.17;64.73
40788;BME280;26497;52.494;7.546;2023-05-27T00:25:21;102362.31;;;12.07;64.94
40788;BME280;26497;52.494;7.546;2023-05-27T00:27:48;102369.16;;;11.97;65.27
40788;BME280;26497;52.494;7.546;2023-05-27T00:30:16;102365.44;;;11.87;65.27
40788;BME280;26497;52.494;7.546;2023-05-27T00:32:43;102366.19;;;11.82;65.53
40788;BME280;26497;52.494;7.546;2023-05-27T00:35:10;102360.91;;;11.82;65.50
40788;BME280;26497;52.494;7.546;2023-05-27T00:37:37;102355.47;;;11.74;65.49
40788;BME280;26497;52.494;7.546;2023-05-27T00:40:07;102363.25;;;11.69;65.43
40788;BME280;26497;52.494;7.546;2023-05-27T00:42:37;102361.66;;;11.76;65.18
40788;BME280;26497;52.494;7.546;2023-05-27T00:45:06;102359.94;;;11.78;65.45
40788;BME280;26497;52.494;7.546;2023-05-27T00:47:33;102358.22;;;11.80;65.48
40788;BME280;26497;52.494;7.546;2023-05-27T00:50:02;102365.06;;;11.70;66.16
40788;BME280;26497;52.494;7.546;2023-05-27T00:52:30;102372.25;;;11.77;66.04
40788;BME280;26497;52.494;7.546;2023-05-27T00:54:57;102365.91;;;11.69;66.20
40788;BME280;26497;52.494;7.546;2023-05-27T00:57:26;102369.53;;;11.74;66.45
40788;BME280;26497;52.494;7.546;2023-05-27T00:59:54;102362.28;;;11.64;66.73
40788;BME280;26497;52.494;7.546;2023-05-27T01:02:21;102356.19;;;11.67;66.89
40788;BME280;26497;52.494;7.546;2023-05-27T01:04:49;102364.06;;;11.65;66.90
40788;BME280;26497;52.494;7.546;2023-05-27T01:07:24;102365.09;;;11.72;66.87
40788;BME280;26497;52.494;7.546;2023-05-27T01:10:00;102352.84;;;11.75;66.64
40788;BME280;26497;52.494;7.546;2023-05-27T01:12:39;102358.03;;;11.71;67.02
40788;BME280;26497;52.494;7.546;2023-05-27T01:15:12;102351.16;;;11.79;66.27
40788;BME280;26497;52.494;7.546;2023-05-27T01:17:41;102344.19;;;11.83;66.41
40788;BME280;26497;52.494;7.546;2023-05-27T01:20:10;102338.75;;;11.76;66.60
40788;BME280;26497;52.494;7.546;2023-05-27T01:22:41;102335.25;;;11.77;66.46
40788;BME280;26497;52.494;7.546;2023-05-27T01:25:09;102334.25;;;11.72;66.46
40788;BME280;26497;52.494;7.546;2023-05-27T01:27:36;102326.06;;;11.60;66.60
40788;BME280;26497;52.494;7.546;2023-05-27T01:30:07;102324.25;;;11.57;66.81
40788;BME280;26497;52.494;7.546;2023-05-27T01:32:41;102330.34;;;11.55;66.79
40788;BME280;26497;52.494;7.546;2023-05-27T01:35:19;102328.50;;;11.50;66.66
40788;BME280;26497;52.494;7.546;2023-05-27T01:37:52;102332.94;;;11.51;66.63
40788;BME280;26497;52.494;7.546;2023-05-27T01:40:20;102335.63;;;11.55;66.37
40788;BME280;26497;52.494;7.546;2023-05-27T01:42:48;102329.53;;;11.57;66.71
40788;BME280;26497;52.494;7.546;2023-05-27T01:45:15;102325.84;;;11.50;66.84
40788;BME280;26497;52.494;7.546;2023-05-27T01:47:43;102329.22;;;11.43;66.93
40788;BME280;26497;52.494;7.546;2023-05-27T01:50:10;102328.50;;;11.50;66.89
40788;BME280;26497;52.494;7.546;2023-05-27T01:52:37;102332.00;;;11.49;67.05
40788;BME280;26497;52.494;7.546;2023-05-27T01:55:07;102326.91;;;11.59;67.21
40788;BME280;26497;52.494;7.546;2023-05-27T01:57:34;102335.78;;;11.61;67.64
40788;BME280;26497;52.494;7.546;2023-05-27T02:00:02;102338.41;;;11.59;67.87
40788;BME280;26497;52.494;7.546;2023-05-27T02:02:30;102327.19;;;11.71;68.08
40788;BME280;26497;52.494;7.546;2023-05-27T02:04:57;102329.84;;;11.71;68.22
40788;BME280;26497;52.494;7.546;2023-05-27T02:07:24;102327.38;;;11.80;68.10
40788;BME280;26497;52.494;7.546;2023-05-27T02:09:52;102320.38;;;11.81;68.16
40788;BME280;26497;52.494;7.546;2023-05-27T02:12:20;102318.66;;;11.85;68.25
40788;BME280;26497;52.494;7.546;2023-05-27T02:14:47;102318.53;;;11.78;68.54
40788;BME280;26497;52.494;7.546;2023-05-27T02:17:14;102322.09;;;11.80;68.67
40788;BME280;26497;52.494;7.546;2023-05-27T02:19:42;102323.13;;;11.87;68.78
40788;BME280;26497;52.494;7.546;2023-05-27T02:22:09;102323.94;;;11.83;68.97
40788;BME280;26497;52.494;7.546;2023-05-27T02:24:36;102312.59;;;11.89;68.95
40788;BME280;26497;52.494;7.546;2023-05-27T02:27:03;102321.03;;;11.72;68.86
40788;BME280;26497;52.494;7.546;2023-05-27T02:29:32;102321.63;;;11.59;68.86
40788;BME280;26497;52.494;7.546;2023-05-27T02:31:59;102335.63;;;11.55;68.83
40788;BME280;26497;52.494;7.546;2023-05-27T02:34:26;102325.97;;;11.55;68.69
40788;BME280;26497;52.494;7.546;2023-05-27T02:36:53;102329.34;;;11.49;68.65
40788;BME280;26497;52.494;7.546;2023-05-27T02:39:20;102333.25;;;11.65;68.47
40788;BME280;26497;52.494;7.546;2023-05-27T02:41:47;102339.22;;;11.57;68.59
40788;BME280;26497;52.494;7.546;2023-05-27T02:44:14;102327.78;;;11.58;68.47
40788;BME280;26497;52.494;7.546;2023-05-27T02:46:43;102327.78;;;11.58;68.62
40788;BME280;26497;52.494;7.546;2023-05-27T02:49:10;102337.50;;;11.59;68.86
40788;BME280;26497;52.494;7.546;2023-05-27T02:51:37;102343.50;;;11.51;68.61
40788;BME280;26497;52.494;7.546;2023-05-27T02:54:04;102337.50;;;11.59;69.08
40788;BME280;26497;52.494;7.546;2023-05-27T02:56:31;102331.53;;;11.68;68.78
40788;BME280;26497;52.494;7.546;2023-05-27T02:58:58;102335.03;;;11.67;68.71
40788;BME280;26497;52.494;7.546;2023-05-27T03:01:25;102334.06;;;11.63;68.82
40788;BME280;26497;52.494;7.546;2023-05-27T03:03:54;102334.19;;;11.69;69.08
40788;BME280;26497;52.494;7.546;2023-05-27T03:06:20;102330.03;;;11.79;69.82
40788;BME280;26497;52.494;7.546;2023-05-27T03:08:47;102337.97;;;11.80;69.68
40788;BME280;26497;52.494;7.546;2023-05-27T03:11:14;102335.19;;;11.74;69.60
40788;BME280;26497;52.494;7.546;2023-05-27T03:13:41;102333.44;;;11.75;70.10
40788;BME280;26497;52.494;7.546;2023-05-27T03:16:08;102328.25;;;11.79;69.72
40788;BME280;26497;52.494;7.546;2023-05-27T03:18:36;102324.72;;;11.79;69.86
40788;BME280;26497;52.494;7.546;2023-05-27T03:21:05;102330.91;;;11.79;69.45
40788;BME280;26497;52.494;7.546;2023-05-27T03:23:32;102319.50;;;11.82;69.48
40788;BME280;26497;52.494;7.546;2023-05-27T03:25:59;102315.63;;;11.66;69.69
40788;BME280;26497;52.494;7.546;2023-05-27T03:28:26;102318.06;;;11.57;69.55
40788;BME280;26497;52.494;7.546;2023-05-27T03:30:53;102321.38;;;11.46;69.62
40788;BME280;26497;52.494;7.546;2023-05-27T03:33:22;102306.50;;;11.51;69.65
40788;BME280;26497;52.494;7.546;2023-05-27T03:35:49;102308.28;;;11.51;69.65
40788;BME280;26497;52.494;7.546;2023-05-27T03:38:17;102294.22;;;11.52;69.44
40788;BME280;26497;52.494;7.546;2023-05-27T03:40:44;102306.56;;;11.53;69.66
40788;BME280;26497;52.494;7.546;2023-05-27T03:43:11;102305.66;;;11.53;69.48
40788;BME280;26497;52.494;7.546;2023-05-27T03:45:38;102297.84;;;11.57;69.58
40788;BME280;26497;52.494;7.546;2023-05-27T03:48:05;102305.03;;;11.64;69.53
40788;BME280;26497;52.494;7.546;2023-05-27T03:50:33;102296.31;;;11.69;69.62
40788;BME280;26497;52.494;7.546;2023-05-27T03:53:00;102294.53;;;11.68;70.00
40788;BME280;26497;52.494;7.546;2023-05-27T03:55:28;102290.31;;;11.76;70.06
40788;BME280;26497;52.494;7.546;2023-05-27T03:57:55;102292.09;;;11.78;70.05
40788;BME280;26497;52.494;7.546;2023-05-27T04:00:23;102289.75;;;11.92;69.67
40788;BME280;26497;52.494;7.546;2023-05-27T04:02:50;102285.41;;;11.98;69.52
40788;BME280;26497;52.494;7.546;2023-05-27T04:05:17;102290.06;;;12.08;69.40
40788;BME280;26497;52.494;7.546;2023-05-27T04:07:43;102290.09;;;12.09;70.05
40788;BME280;26497;52.494;7.546;2023-05-27T04:10:10;102291.22;;;12.21;70.00
40788;BME280;26497;52.494;7.546;2023-05-27T04:12:40;102294.03;;;12.30;70.15
40788;BME280;26497;52.494;7.546;2023-05-27T04:15:08;102295.13;;;12.43;70.07
40788;BME280;26497;52.494;7.546;2023-05-27T04:17:35;102290.84;;;12.50;70.37
40788;BME280;26497;52.494;7.546;2023-05-27T04:20:04;102299.78;;;12.57;70.73
40788;BME280;26497;52.494;7.546;2023-05-27T04:22:39;102302.84;;;12.83;71.54
40788;BME280;26497;52.494;7.546;2023-05-27T04:25:07;102304.31;;;13.19;73.08
40788;BME280;26497;52.494;7.546;2023-05-27T04:27:34;102311.94;;;13.59;72.53
40788;BME280;26497;52.494;7.546;2023-05-27T04:30:04;102314.31;;;14.07;71.93
40788;BME280;26497;52.494;7.546;2023-05-27T04:32:32;102313.88;;;14.48;71.58
40788;BME280;26497;52.494;7.546;2023-05-27T04:35:04;102307.19;;;14.92;71.19
40788;BME280;26497;52.494;7.546;2023-05-27T04:37:33;102300.38;;;15.34;70.36
40788;BME280;26497;52.494;7.546;2023-05-27T04:40:02;102295.22;;;15.72;65.63
40788;BME280;26497;52.494;7.546;2023-05-27T04:42:31;102298.91;;;15.99;64.52
40788;BME280;26497;52.494;7.546;2023-05-27T04:44:58;102291.88;;;16.33;63.50
40788;BME280;26497;52.494;7.546;2023-05-27T04:47:28;102307.88;;;16.52;61.33
40788;BME280;26497;52.494;7.546;2023-05-27T04:49:56;102316.75;;;16.80;59.61
40788;BME280;26497;52.494;7.546;2023-05-27T04:52:23;102317.63;;;17.31;57.57
40788;BME280;26497;52.494;7.546;2023-05-27T04:54:50;102319.31;;;17.60;57.15
40788;BME280;26497;52.494;7.546;2023-05-27T04:57:17;102313.88;;;17.88;56.08
40788;BME280;26497;52.494;7.546;2023-05-27T04:59:45;102300.47;;;17.98;54.37
40788;BME280;26497;52.494;7.546;2023-05-27T05:02:45;102293.22;;;18.28;53.76
40788;BME280;26497;52.494;7.546;2023-05-27T05:05:14;102295.72;;;18.52;52.15
40788;BME280;26497;52.494;7.546;2023-05-27T05:07:42;102286.47;;;18.92;50.21
40788;BME280;26497;52.494;7.546;2023-05-27T05:10:10;102282.19;;;19.59;50.09
40788;BME280;26497;52.494;7.546;2023-05-27T05:12:38;102273.81;;;19.89;49.00
40788;BME280;26497;52.494;7.546;2023-05-27T05:15:07;102281.56;;;20.08;47.56
40788;BME280;26497;52.494;7.546;2023-05-27T05:17:34;102271.88;;;20.55;45.68
40788;BME280;26497;52.494;7.546;2023-05-27T05:20:03;102264.47;;;21.21;46.44
40788;BME280;26497;52.494;7.546;2023-05-27T05:22:31;102273.97;;;21.84;44.53
40788;BME280;26497;52.494;7.546;2023-05-27T05:24:58;102278.13;;;21.97;41.39
40788;BME280;26497;52.494;7.546;2023-05-27T05:27:26;102275.50;;;22.33;42.74
40788;BME280;26497;52.494;7.546;2023-05-27T05:29:53;102271.28;;;22.94;41.61
40788;BME280;26497;52.494;7.546;2023-05-27T05:32:20;102262.91;;;23.38;40.06
40788;BME280;26497;52.494;7.546;2023-05-27T05:34:47;102258.16;;;23.78;38.02
40788;BME280;26497;52.494;7.546;2023-05-27T05:37:15;102259.59;;;23.90;36.61
40788;BME280;26497;52.494;7.546;2023-05-27T05:39:42;102263.78;;;23.98;36.13
40788;BME280;26497;52.494;7.546;2023-05-27T05:42:09;102263.38;;;24.12;35.60
40788;BME280;26497;52.494;7.546;2023-05-27T05:44:36;102260.03;;;24.33;35.29
40788;BME280;26497;52.494;7.546;2023-05-27T05:47:05;102260.19;;;24.82;34.74
40788;BME280;26497;52.494;7.546;2023-05-27T05:49:32;102265.38;;;25.13;33.81
40788;BME280;26497;52.494;7.546;2023-05-27T05:51:59;102267.78;;;25.21;33.51
40788;BME280;26497;52.494;7.546;2023-05-27T05:54:27;102268.84;;;25.41;33.14
40788;BME280;26497;52.494;7.546;2023-05-27T05:56:54;102261.06;;;25.81;32.99
40788;BME280;26497;52.494;7.546;2023-05-27T05:59:21;102251.69;;;25.89;32.68
40788;BME280;26497;52.494;7.546;2023-05-27T06:01:48;102254.34;;;25.91;32.34
40788;BME280;26497;52.494;7.546;2023-05-27T06:04:15;102254.41;;;26.12;32.11
40788;BME280;26497;52.494;7.546;2023-05-27T06:06:42;102262.91;;;26.25;31.54
40788;BME280;26497;52.494;7.546;2023-05-27T06:09:09;102258.84;;;26.37;31.93
40788;BME280;26497;52.494;7.546;2023-05-27T06:11:38;102258.97;;;26.75;31.36
40788;BME280;26497;52.494;7.546;2023-05-27T06:14:05;102250.22;;;27.30;30.82
40788;BME280;26497;52.494;7.546;2023-05-27T06:16:32;102257.41;;;27.71;29.70
40788;BME280;26497;52.494;7.546;2023-05-27T06:19:01;102252.84;;;27.72;30.09
40788;BME280;26497;52.494;7.546;2023-05-27T06:21:28;102253.94;;;27.67;30.14
40788;BME280;26497;52.494;7.546;2023-05-27T06:23:58;102262.72;;;27.73;30.23
40788;BME280;26497;52.494;7.546;2023-05-27T06:26:25;102258.75;;;27.99;29.55
40788;BME280;26497;52.494;7.546;2023-05-27T06:28:54;102261.00;;;28.28;29.67
40788;BME280;26497;52.494;7.546;2023-05-27T06:31:21;102262.00;;;28.79;28.49
40788;BME280;26497;52.494;7.546;2023-05-27T06:33:48;102257.19;;;28.84;28.40
40788;BME280;26497;52.494;7.546;2023-05-27T06:36:15;102262.63;;;28.84;27.96
40788;BME280;26497;52.494;7.546;2023-05-27T06:38:42;102258.78;;;28.71;28.09
40788;BME280;26497;52.494;7.546;2023-05-27T06:41:09;102254.13;;;29.08;27.98
40788;BME280;26497;52.494;7.546;2023-05-27T06:43:36;102249.59;;;29.58;27.29
40788;BME280;26497;52.494;7.546;2023-05-27T06:46:04;102246.19;;;30.19;26.67
40788;BME280;26497;52.494;7.546;2023-05-27T06:48:31;102246.78;;;30.55;25.89
40788;BME280;26497;52.494;7.546;2023-05-27T06:50:58;102243.66;;;30.77;25.35
40788;BME280;26497;52.494;7.546;2023-05-27T06:53:26;102243.88;;;31.03;25.34
40788;BME280;26497;52.494;7.546;2023-05-27T06:55:53;102242.31;;;30.99;25.08
40788;BME280;26497;52.494;7.546;2023-05-27T06:58:20;102240.91;;;31.22;24.94
40788;BME280;26497;52.494;7.546;2023-05-27T07:00:47;102226.00;;;31.13;24.70
40788;BME280;26497;52.494;7.546;2023-05-27T07:03:15;102236.31;;;31.08;24.93
40788;BME280;26497;52.494;7.546;2023-05-27T07:05:42;102231.34;;;31.29;24.70
40788;BME280;26497;52.494;7.546;2023-05-27T07:08:09;102231.75;;;31.23;24.84
40788;BME280;26497;52.494;7.546;2023-05-27T07:10:36;102221.31;;;31.30;24.77
40788;BME280;26497;52.494;7.546;2023-05-27T07:13:03;102214.88;;;31.31;24.21
40788;BME280;26497;52.494;7.546;2023-05-27T07:15:30;102211.00;;;31.21;25.06
40788;BME280;26497;52.494;7.546;2023-05-27T07:17:57;102208.59;;;31.30;24.94
40788;BME280;26497;52.494;7.546;2023-05-27T07:20:26;102207.44;;;31.76;24.63
40788;BME280;26497;52.494;7.546;2023-05-27T07:22:53;102203.34;;;31.97;24.47
40788;BME280;26497;52.494;7.546;2023-05-27T07:25:20;102205.78;;;32.01;23.48
40788;BME280;26497;52.494;7.546;2023-05-27T07:27:47;102210.34;;;32.28;23.72
40788;BME280;26497;52.494;7.546;2023-05-27T07:30:14;102217.38;;;32.84;22.88
40788;BME280;26497;52.494;7.546;2023-05-27T07:32:41;102205.63;;;33.09;22.72
40788;BME280;26497;52.494;7.546;2023-05-27T07:35:08;102203.16;;;33.31;22.50
40788;BME280;26497;52.494;7.546;2023-05-27T07:37:36;102205.34;;;32.48;23.73
40788;BME280;26497;52.494;7.546;2023-05-27T07:40:04;102201.75;;;32.60;23.02
40788;BME280;26497;52.494;7.546;2023-05-27T07:42:32;102189.03;;;32.87;23.78
40788;BME280;26497;52.494;7.546;2023-05-27T07:44:59;102193.25;;;33.67;22.97
40788;BME280;26497;52.494;7.546;2023-05-27T07:47:26;102186.03;;;34.26;21.48
40788;BME280;26497;52.494;7.546;2023-05-27T07:49:53;102175.59;;;34.90;21.55
40788;BME280;26497;52.494;7.546;2023-05-27T07:52:20;102177.06;;;35.39;21.14
40788;BME280;26497;52.494;7.546;2023-05-27T07:54:48;102178.28;;;35.58;20.17
40788;BME280;26497;52.494;7.546;2023-05-27T07:57:15;102182.81;;;35.48;19.72
40788;BME280;26497;52.494;7.546;2023-05-27T07:59:43;102174.34;;;34.82;20.21
40788;BME280;26497;52.494;7.546;2023-05-27T08:02:10;102178.31;;;34.20;21.33
40788;BME280;26497;52.494;7.546;2023-05-27T08:04:37;102169.47;;;34.16;20.87
40788;BME280;26497;52.494;7.546;2023-05-27T08:07:04;102173.44;;;34.48;21.52
40788;BME280;26497;52.494;7.546;2023-05-27T08:09:31;102169.78;;;34.00;21.42
40788;BME280;26497;52.494;7.546;2023-05-27T08:12:00;102160.03;;;34.79;21.54
40788;BME280;26497;52.494;7.546;2023-05-27T08:14:27;102169.19;;;35.46;20.45
40788;BME280;26497;52.494;7.546;2023-05-27T08:16:54;102156.91;;;35.73;19.55
40788;BME280;26497;52.494;7.546;2023-05-27T08:19:21;102160.81;;;35.92;19.86
40788;BME280;26497;52.494;7.546;2023-05-27T08:21:48;102153.47;;;35.60;20.22
40788;BME280;26497;52.494;7.546;2023-05-27T08:24:15;102159.41;;;35.76;19.38
40788;BME280;26497;52.494;7.546;2023-05-27T08:26:42;102145.38;;;35.91;19.40
40788;BME280;26497;52.494;7.546;2023-05-27T08:29:11;102142.66;;;35.79;19.34
40788;BME280;26497;52.494;7.546;2023-05-27T08:31:38;102141.97;;;35.66;19.10
40788;BME280;26497;52.494;7.546;2023-05-27T08:34:05;102135.53;;;35.55;19.42
40788;BME280;26497;52.494;7.546;2023-05-27T08:36:31;102138.59;;;34.73;20.85
40788;BME280;26497;52.494;7.546;2023-05-27T08:38:59;102130.16;;;34.98;20.14
40788;BME280;26497;52.494;7.546;2023-05-27T08:41:27;102125.09;;;35.26;20.00
40788;BME280;26497;52.494;7.546;2023-05-27T08:43:53;102127.31;;;35.44;20.13
40788;BME280;26497;52.494;7.546;2023-05-27T08:46:23;102127.88;;;35.70;19.51
40788;BME280;26497;52.494;7.546;2023-05-27T08:48:52;102130.34;;;35.29;19.44
40788;BME280;26497;52.494;7.546;2023-05-27T08:51:21;102130.63;;;34.81;19.39
40788;BME280;26497;52.494;7.546;2023-05-27T08:53:48;102126.00;;;34.81;19.52
40788;BME280;26497;52.494;7.546;2023-05-27T08:56:20;102123.09;;;34.37;20.39
40788;BME280;26497;52.494;7.546;2023-05-27T08:58:48;102125.50;;;33.46;20.94
40788;BME280;26497;52.494;7.546;2023-05-27T09:01:17;102124.16;;;32.11;21.86
40788;BME280;26497;52.494;7.546;2023-05-27T09:03:45;102118.41;;;31.06;23.31
40788;BME280;26497;52.494;7.546;2023-05-27T09:06:13;102122.59;;;30.23;24.34
40788;BME280;26497;52.494;7.546;2023-05-27T09:08:40;102123.09;;;30.15;25.05
40788;BME280;26497;52.494;7.546;2023-05-27T09:11:07;102124.63;;;29.89;24.87
40788;BME280;26497;52.494;7.546;2023-05-27T09:13:34;102119.00;;;29.46;24.32
40788;BME280;26497;52.494;7.546;2023-05-27T09:16:03;102123.59;;;29.27;24.80
40788;BME280;26497;52.494;7.546;2023-05-27T09:18:32;102117.69;;;29.53;25.71
40788;BME280;26497;52.494;7.546;2023-05-27T09:21:02;102112.50;;;29.64;25.14
40788;BME280;26497;52.494;7.546;2023-05-27T09:23:29;102108.88;;;29.80;23.99
40788;BME280;26497;52.494;7.546;2023-05-27T09:25:56;102109.56;;;29.83;24.37
40788;BME280;26497;52.494;7.546;2023-05-27T09:28:25;102103.84;;;29.88;25.85
40788;BME280;26497;52.494;7.546;2023-05-27T09:30:59;102098.84;;;30.41;24.00
40788;BME280;26497;52.494;7.546;2023-05-27T09:33:27;102099.47;;;31.32;23.10
40788;BME280;26497;52.494;7.546;2023-05-27T09:35:54;102092.50;;;31.83;22.53
40788;BME280;26497;52.494;7.546;2023-05-27T09:38:22;102099.97;;;32.58;21.45
40788;BME280;26497;52.494;7.546;2023-05-27T09:40:49;102094.09;;;33.52;20.99
40788;BME280;26497;52.494;7.546;2023-05-27T09:43:16;102089.97;;;34.18;20.11
40788;BME280;26497;52.494;7.546;2023-05-27T09:45:44;102076.44;;;35.07;19.03
40788;BME280;26497;52.494;7.546;2023-05-27T09:48:12;102075.59;;;35.51;18.72
40788;BME280;26497;52.494;7.546;2023-05-27T09:50:45;102075.13;;;35.67;18.98
40788;BME280;26497;52.494;7.546;2023-05-27T09:53:13;102075.28;;;35.86;18.97
40788;BME280;26497;52.494;7.546;2023-05-27T09:55:43;102072.19;;;35.47;19.74
40788;BME280;26497;52.494;7.546;2023-05-27T09:58:11;102066.31;;;36.27;17.98
40788;BME280;26497;52.494;7.546;2023-05-27T10:00:38;102061.97;;;36.96;17.86
40788;BME280;26497;52.494;7.546;2023-05-27T10:03:07;102059.91;;;37.69;17.81
40788;BME280;26497;52.494;7.546;2023-05-27T10:05:36;102064.63;;;37.86;16.56
40788;BME280;26497;52.494;7.546;2023-05-27T10:08:05;102061.44;;;38.01;17.08
40788;BME280;26497;52.494;7.546;2023-05-27T10:10:32;102057.69;;;37.82;16.59
40788;BME280;26497;52.494;7.546;2023-05-27T10:13:01;102061.59;;;37.40;16.43
40788;BME280;26497;52.494;7.546;2023-05-27T10:15:30;102059.13;;;37.08;17.55
40788;BME280;26497;52.494;7.546;2023-05-27T10:17:58;102053.34;;;37.40;16.78
40788;BME280;26497;52.494;7.546;2023-05-27T10:20:30;102053.22;;;37.52;18.08
40788;BME280;26497;52.494;7.546;2023-05-27T10:23:09;102060.75;;;37.69;16.67
40788;BME280;26497;52.494;7.546;2023-05-27T10:25:38;102056.84;;;37.32;17.46
40788;BME280;26497;52.494;7.546;2023-05-27T10:28:07;102043.00;;;36.93;16.84
40788;BME280;26497;52.494;7.546;2023-05-27T10:30:44;102047.31;;;36.86;17.14
40788;BME280;26497;52.494;7.546;2023-05-27T10:33:12;102044.69;;;36.65;17.55
40788;BME280;26497;52.494;7.546;2023-05-27T10:35:40;102041.03;;;36.54;17.76
40788;BME280;26497;52.494;7.546;2023-05-27T10:38:18;102037.59;;;36.10;18.31
40788;BME280;26497;52.494;7.546;2023-05-27T10:40:46;102035.66;;;36.53;18.26
40788;BME280;26497;52.494;7.546;2023-05-27T10:43:18;102036.88;;;36.70;18.42
40788;BME280;26497;52.494;7.546;2023-05-27T10:45:46;102037.06;;;36.47;17.85
40788;BME280;26497;52.494;7.546;2023-05-27T10:48:18;102026.00;;;35.85;17.87
40788;BME280;26497;52.494;7.546;2023-05-27T10:50:52;102019.88;;;36.14;18.12
40788;BME280;26497;52.494;7.546;2023-05-27T10:53:20;102019.34;;;35.78;18.68
40788;BME280;26497;52.494;7.546;2023-05-27T10:55:48;102005.41;;;36.12;19.28
40788;BME280;26497;52.494;7.546;2023-05-27T10:58:17;102015.19;;;36.36;18.71
40788;BME280;26497;52.494;7.546;2023-05-27T11:00:45;102010.56;;;35.84;19.13
40788;BME280;26497;52.494;7.546;2023-05-27T11:03:19;101999.53;;;36.16;18.38
40788;BME280;26497;52.494;7.546;2023-05-27T11:05:47;101996.84;;;35.84;19.19
40788;BME280;26497;52.494;7.546;2023-05-27T11:08:14;102001.13;;;36.50;18.49
40788;BME280;26497;52.494;7.546;2023-05-27T11:10:41;101986.94;;;36.55;18.10
40788;BME280;26497;52.494;7.546;2023-05-27T11:13:08;101999.44;;;36.28;19.54
40788;BME280;26497;52.494;7.546;2023-05-27T11:15:39;101982.13;;;36.37;18.13
40788;BME280;26497;52.494;7.546;2023-05-27T11:18:08;101985.59;;;36.39;18.95
40788;BME280;26497;52.494;7.546;2023-05-27T11:20:35;101988.75;;;36.85;18.50
40788;BME280;26497;52.494;7.546;2023-05-27T11:23:03;101986.78;;;37.07;17.78
40788;BME280;26497;52.494;7.546;2023-05-27T11:25:42;101976.19;;;37.12;17.64
40788;BME280;26497;52.494;7.546;2023-05-27T11:28:15;101973.97;;;36.77;18.27
40788;BME280;26497;52.494;7.546;2023-05-27T11:30:44;101973.22;;;36.55;18.33
40788;BME280;26497;52.494;7.546;2023-05-27T11:33:11;101979.97;;;36.10;18.08
40788;BME280;26497;52.494;7.546;2023-05-27T11:35:38;101976.66;;;36.06;18.41
40788;BME280;26497;52.494;7.546;2023-05-27T11:38:16;101964.53;;;35.87;18.74
40788;BME280;26497;52.494;7.546;2023-05-27T11:40:43;101965.25;;;35.90;19.26
40788;BME280;26497;52.494;7.546;2023-05-27T11:43:16;101963.38;;;36.11;18.21
40788;BME280;26497;52.494;7.546;2023-05-27T11:45:45;101958.56;;;36.44;18.45
40788;BME280;26497;52.494;7.546;2023-05-27T11:48:12;101953.28;;;36.72;17.63
40788;BME280;26497;52.494;7.546;2023-05-27T11:50:40;101950.28;;;36.85;18.02
40788;BME280;26497;52.494;7.546;2023-05-27T11:53:07;101949.81;;;36.60;17.75
40788;BME280;26497;52.494;7.546;2023-05-27T11:55:34;101943.41;;;36.40;17.83
40788;BME280;26497;52.494;7.546;2023-05-27T11:58:01;101943.72;;;36.06;18.25
40788;BME280;26497;52.494;7.546;2023-05-27T12:00:28;101933.94;;;36.23;19.13
40788;BME280;26497;52.494;7.546;2023-05-27T12:02:56;101930.25;;;36.03;18.61
40788;BME280;26497;52.494;7.546;2023-05-27T12:05:23;101931.31;;;36.63;17.45
40788;BME280;26497;52.494;7.546;2023-05-27T12:07:50;101921.03;;;36.04;17.96
40788;BME280;26497;52.494;7.546;2023-05-27T12:10:17;101918.50;;;36.32;17.46
40788;BME280;26497;52.494;7.546;2023-05-27T12:12:44;101916.50;;;36.44;18.07
40788;BME280;26497;52.494;7.546;2023-05-27T12:15:11;101921.19;;;36.63;17.31
40788;BME280;26497;52.494;7.546;2023-05-27T12:17:38;101912.91;;;36.43;17.49
40788;BME280;26497;52.494;7.546;2023-05-27T12:20:08;101922.91;;;36.54;17.95
40788;BME280;26497;52.494;7.546;2023-05-27T12:22:35;101899.53;;;36.89;17.13
40788;BME280;26497;52.494;7.546;2023-05-27T12:25:03;101903.13;;;36.90;17.17
40788;BME280;26497;52.494;7.546;2023-05-27T12:27:30;101895.09;;;36.38;18.23
40788;BME280;26497;52.494;7.546;2023-05-27T12:29:57;101890.47;;;35.97;18.80
40788;BME280;26497;52.494;7.546;2023-05-27T12:32:24;101878.25;;;36.62;18.03
40788;BME280;26497;52.494;7.546;2023-05-27T12:34:51;101877.50;;;36.60;18.50
40788;BME280;26497;52.494;7.546;2023-05-27T12:37:19;101882.75;;;37.02;17.56
40788;BME280;26497;52.494;7.546;2023-05-27T12:39:46;101878.38;;;37.19;17.43
40788;BME280;26497;52.494;7.546;2023-05-27T12:42:13;101871.31;;;37.17;17.98
40788;BME280;26497;52.494;7.546;2023-05-27T12:44:40;101870.03;;;37.01;18.42
40788;BME280;26497;52.494;7.546;2023-05-27T12:47:07;101864.16;;;37.34;17.24
40788;BME280;26497;52.494;7.546;2023-05-27T12:49:36;101863.28;;;37.53;17.72
40788;BME280;26497;52.494;7.546;2023-05-27T12:52:04;101869.75;;;37.72;17.24
40788;BME280;26497;52.494;7.546;2023-05-27T12:54:32;101872.69;;;37.88;16.69